sensor_id;sensor_type;location;lat;lon;timestamp;pressure;altitude;pressure_sealevel;temperature
72278;BMP280;61204;49.980;8.358;2022-10-01T04:32:43;99983.25;;;8.90
72278;BMP280;61204;49.980;8.358;2022-10-01T04:35:09;99972.31;;;8.90
72278;BMP280;61204;49.980;8.358;2022-10-01T04:37:35;99968.56;;;8.95
72278;BMP280;61204;49.980;8.358;2022-10-01T04:40:01;99968.56;;;8.95
72278;BMP280;61204;49.980;8.358;2022-10-01T04:42:27;99955.13;;;8.99
72278;BMP280;61204;49.980;8.358;2022-10-01T04:44:52;99949.06;;;9.11
72278;BMP280;61204;49.980;8.358;2022-10-01T04:47:18;99956.72;;;9.12
72278;BMP280;61204;49.980;8.358;2022-10-01T04:49:44;99951.50;;;9.16
72278;BMP280;61204;49.980;8.358;2022-10-01T04:52:09;99942.00;;;9.17
72278;BMP280;61204;49.980;8.358;2022-10-01T04:54:35;99941.56;;;9.21
72278;BMP280;61204;49.980;8.358;2022-10-01T04:57:00;99927.44;;;9.24
72278;BMP280;61204;49.980;8.358;2022-10-01T04:59:26;99927.00;;;9.18
72278;BMP280;61204;49.980;8.358;2022-10-01T05:01:51;99917.81;;;9.23
72278;BMP280;61204;49.980;8.358;2022-10-01T05:04:17;99906.13;;;9.23
72278;BMP280;61204;49.980;8.358;2022-10-01T05:06:43;99918.53;;;9.24
72278;BMP280;61204;49.980;8.358;2022-10-01T05:09:08;99905.28;;;9.20
72278;BMP280;61204;49.980;8.358;2022-10-01T05:11:34;99903.97;;;9.21
72278;BMP280;61204;49.980;8.358;2022-10-01T05:14:00;99891.41;;;9.28
72278;BMP280;61204;49.980;8.358;2022-10-01T05:16:25;99894.16;;;9.28
72278;BMP280;61204;49.980;8.358;2022-10-01T05:18:51;99909.25;;;9.29
72278;BMP280;61204;49.980;8.358;2022-10-01T05:21:19;99896.88;;;9.28
72278;BMP280;61204;49.980;8.358;2022-10-01T05:23:45;99901.06;;;9.29
72278;BMP280;61204;49.980;8.358;2022-10-01T05:26:11;99894.88;;;9.29
72278;BMP280;61204;49.980;8.358;2022-10-01T05:28:36;99897.72;;;9.31
72278;BMP280;61204;49.980;8.358;2022-10-01T05:31:07;99897.16;;;9.32
72278;BMP280;61204;49.980;8.358;2022-10-01T05:33:33;99891.94;;;9.36
72278;BMP280;61204;49.980;8.358;2022-10-01T05:35:58;99893.38;;;9.37
72278;BMP280;61204;49.980;8.358;2022-10-01T05:38:25;99900.03;;;9.34
72278;BMP280;61204;49.980;8.358;2022-10-01T05:40:50;99906.22;;;9.35
72278;BMP280;61204;49.980;8.358;2022-10-01T05:43:16;99900.84;;;9.37
72278;BMP280;61204;49.980;8.358;2022-10-01T05:45:43;99901.84;;;9.41
72278;BMP280;61204;49.980;8.358;2022-10-01T05:48:09;99910.06;;;9.41
72278;BMP280;61204;49.980;8.358;2022-10-01T05:50:38;99921.72;;;9.42
72278;BMP280;61204;49.980;8.358;2022-10-01T05:53:06;99917.56;;;9.41
72278;BMP280;61204;49.980;8.358;2022-10-01T05:55:33;99918.41;;;9.43
72278;BMP280;61204;49.980;8.358;2022-10-01T05:58:00;99912.22;;;9.43
72278;BMP280;61204;49.980;8.358;2022-10-01T06:00:37;99909.03;;;9.46
72278;BMP280;61204;49.980;8.358;2022-10-01T06:03:05;99899.00;;;9.39
72278;BMP280;61204;49.980;8.358;2022-10-01T06:05:33;99903.88;;;9.41
72278;BMP280;61204;49.980;8.358;2022-10-01T06:08:03;99908.03;;;9.42
72278;BMP280;61204;49.980;8.358;2022-10-01T06:10:31;99905.19;;;9.40
72278;BMP280;61204;49.980;8.358;2022-10-01T06:13:00;99903.16;;;9.40
72278;BMP280;61204;49.980;8.358;2022-10-01T06:15:27;99903.88;;;9.41
72278;BMP280;61204;49.980;8.358;2022-10-01T06:17:54;99904.84;;;9.45
72278;BMP280;61204;49.980;8.358;2022-10-01T06:20:20;99894.56;;;9.56
72278;BMP280;61204;49.980;8.358;2022-10-01T06:22:52;99889.09;;;9.56
72278;BMP280;61204;49.980;8.358;2022-10-01T06:25:21;99885.44;;;9.63
72278;BMP280;61204;49.980;8.358;2022-10-01T06:27:52;99890.19;;;9.62
72278;BMP280;61204;49.980;8.358;2022-10-01T06:30:20;99884.41;;;9.68
72278;BMP280;61204;49.980;8.358;2022-10-01T06:32:46;99875.91;;;9.64
72278;BMP280;61204;49.980;8.358;2022-10-01T06:35:12;99875.19;;;9.63
72278;BMP280;61204;49.980;8.358;2022-10-01T06:37:38;99873.44;;;9.68
72278;BMP280;61204;49.980;8.358;2022-10-01T06:40:04;99845.25;;;9.65
72278;BMP280;61204;49.980;8.358;2022-10-01T06:42:31;99867.84;;;9.66
72278;BMP280;61204;49.980;8.358;2022-10-01T06:44:57;99871.03;;;9.62
72278;BMP280;61204;49.980;8.358;2022-10-01T06:47:22;99873.19;;;9.64
72278;BMP280;61204;49.980;8.358;2022-10-01T06:49:48;99878.41;;;9.60
72278;BMP280;61204;49.980;8.358;2022-10-01T06:52:14;99876.78;;;9.66
72278;BMP280;61204;49.980;8.358;2022-10-01T06:54:58;99873.59;;;9.70
72278;BMP280;61204;49.980;8.358;2022-10-01T06:57:25;99883.13;;;9.69
72278;BMP280;61204;49.980;8.358;2022-10-01T06:59:52;99891.41;;;9.71
72278;BMP280;61204;49.980;8.358;2022-10-01T07:02:23;99889.53;;;9.73
72278;BMP280;61204;49.980;8.358;2022-10-01T07:04:55;99885.50;;;9.74
72278;BMP280;61204;49.980;8.358;2022-10-01T07:07:28;99887.63;;;9.76
72278;BMP280;61204;49.980;8.358;2022-10-01T07:10:00;99883.16;;;9.80
72278;BMP280;61204;49.980;8.358;2022-10-01T07:12:28;99864.56;;;9.79
72278;BMP280;61204;49.980;8.358;2022-10-01T07:14:53;99861.25;;;9.80
72278;BMP280;61204;49.980;8.358;2022-10-01T07:17:20;99846.88;;;9.80
72278;BMP280;61204;49.980;8.358;2022-10-01T07:19:46;99822.31;;;9.82
72278;BMP280;61204;49.980;8.358;2022-10-01T07:22:12;99833.88;;;9.80
72278;BMP280;61204;49.980;8.358;2022-10-01T07:24:38;99851.59;;;9.79
72278;BMP280;61204;49.980;8.358;2022-10-01T07:27:04;99866.47;;;9.76
72278;BMP280;61204;49.980;8.358;2022-10-01T07:29:31;99852.34;;;9.80
72278;BMP280;61204;49.980;8.358;2022-10-01T07:31:58;99835.28;;;9.82
72278;BMP280;61204;49.980;8.358;2022-10-01T07:34:26;99857.19;;;9.82
72278;BMP280;61204;49.980;8.358;2022-10-01T07:36:53;99851.72;;;9.82
72278;BMP280;61204;49.980;8.358;2022-10-01T07:39:20;99853.88;;;9.83
72278;BMP280;61204;49.980;8.358;2022-10-01T07:41:47;99852.19;;;9.78
72278;BMP280;61204;49.980;8.358;2022-10-01T07:44:14;99848.75;;;9.77
72278;BMP280;61204;49.980;8.358;2022-10-01T07:46:40;99843.41;;;9.79
72278;BMP280;61204;49.980;8.358;2022-10-01T07:49:07;99815.91;;;9.77
72278;BMP280;61204;49.980;8.358;2022-10-01T07:51:34;99817.00;;;9.84
72278;BMP280;61204;49.980;8.358;2022-10-01T07:54:04;99836.28;;;9.86
72278;BMP280;61204;49.980;8.358;2022-10-01T07:56:30;99860.91;;;9.86
72278;BMP280;61204;49.980;8.358;2022-10-01T07:58:57;99884.38;;;9.89
72278;BMP280;61204;49.980;8.358;2022-10-01T08:01:24;99889.25;;;9.91
72278;BMP280;61204;49.980;8.358;2022-10-01T08:03:50;99887.09;;;9.89
72278;BMP280;61204;49.980;8.358;2022-10-01T08:06:17;99861.06;;;9.88
72278;BMP280;61204;49.980;8.358;2022-10-01T08:08:46;99860.44;;;9.90
72278;BMP280;61204;49.980;8.358;2022-10-01T08:11:13;99852.38;;;9.92
72278;BMP280;61204;49.980;8.358;2022-10-01T08:13:42;99849.91;;;9.96
72278;BMP280;61204;49.980;8.358;2022-10-01T08:16:10;99836.28;;;9.98
72278;BMP280;61204;49.980;8.358;2022-10-01T08:18:37;99806.31;;;10.00
72278;BMP280;61204;49.980;8.358;2022-10-01T08:21:07;99807.28;;;10.04
72278;BMP280;61204;49.980;8.358;2022-10-01T08:23:33;99829.19;;;10.04
72278;BMP280;61204;49.980;8.358;2022-10-01T08:26:01;99837.53;;;10.06
72278;BMP280;61204;49.980;8.358;2022-10-01T08:28:32;99835.50;;;10.07
72278;BMP280;61204;49.980;8.358;2022-10-01T08:31:04;99813.47;;;10.05
72278;BMP280;61204;49.980;8.358;2022-10-01T08:33:32;99781.44;;;10.07
72278;BMP280;61204;49.980;8.358;2022-10-01T08:36:03;99828.84;;;10.10
72278;BMP280;61204;49.980;8.358;2022-10-01T08:38:34;99904.47;;;10.15
72278;BMP280;61204;49.980;8.358;2022-10-01T08:41:11;99907.47;;;10.19
72278;BMP280;61204;49.980;8.358;2022-10-01T08:43:50;99900.13;;;10.22
72278;BMP280;61204;49.980;8.358;2022-10-01T08:46:23;99918.06;;;10.25
72278;BMP280;61204;49.980;8.358;2022-10-01T08:54:38;99906.31;;;10.34
72278;BMP280;61204;49.980;8.358;2022-10-01T08:57:21;99906.44;;;10.36
72278;BMP280;61204;49.980;8.358;2022-10-01T08:59:56;99901.81;;;10.39
72278;BMP280;61204;49.980;8.358;2022-10-01T09:02:31;99907.16;;;10.37
72278;BMP280;61204;49.980;8.358;2022-10-01T09:05:04;99900.97;;;10.36
72278;BMP280;61204;49.980;8.358;2022-10-01T09:11:18;99892.75;;;10.36
72278;BMP280;61204;49.980;8.358;2022-10-01T09:14:22;99890.41;;;10.54
72278;BMP280;61204;49.980;8.358;2022-10-01T09:20:20;99887.66;;;10.66
72278;BMP280;61204;49.980;8.358;2022-10-01T09:23:26;99891.13;;;10.78
72278;BMP280;61204;49.980;8.358;2022-10-01T09:25:59;99891.84;;;10.90
72278;BMP280;61204;49.980;8.358;2022-10-01T09:28:31;99887.34;;;10.95
72278;BMP280;61204;49.980;8.358;2022-10-01T09:33:42;99902.91;;;11.15
72278;BMP280;61204;49.980;8.358;2022-10-01T09:36:56;99901.38;;;11.24
72278;BMP280;61204;49.980;8.358;2022-10-01T09:42:40;99901.81;;;11.44
72278;BMP280;61204;49.980;8.358;2022-10-01T09:45:14;99908.84;;;11.47
72278;BMP280;61204;49.980;8.358;2022-10-01T09:47:48;99901.44;;;11.50
72278;BMP280;61204;49.980;8.358;2022-10-01T09:50:26;99900.47;;;11.45
72278;BMP280;61204;49.980;8.358;2022-10-01T09:53:04;99899.06;;;11.44
72278;BMP280;61204;49.980;8.358;2022-10-01T09:55:43;99900.41;;;11.43
72278;BMP280;61204;49.980;8.358;2022-10-01T09:58:21;99906.47;;;11.41
72278;BMP280;61204;49.980;8.358;2022-10-01T10:00:53;99915.41;;;11.42
72278;BMP280;61204;49.980;8.358;2022-10-01T10:03:25;99905.75;;;11.41
72278;BMP280;61204;49.980;8.358;2022-10-01T10:05:55;99908.25;;;11.37
72278;BMP280;61204;49.980;8.358;2022-10-01T10:08:30;99913.13;;;11.38
72278;BMP280;61204;49.980;8.358;2022-10-01T10:11:02;99905.50;;;11.37
72278;BMP280;61204;49.980;8.358;2022-10-01T10:13:36;99906.69;;;11.45
72278;BMP280;61204;49.980;8.358;2022-10-01T10:16:08;99898.81;;;11.52
72278;BMP280;61204;49.980;8.358;2022-10-01T10:18:53;99905.25;;;11.56
72278;BMP280;61204;49.980;8.358;2022-10-01T10:21:55;99907.47;;;11.71
72278;BMP280;61204;49.980;8.358;2022-10-01T10:24:34;99899.28;;;11.85
72278;BMP280;61204;49.980;8.358;2022-10-01T10:27:02;99904.63;;;11.95
72278;BMP280;61204;49.980;8.358;2022-10-01T10:29:45;99911.56;;;11.96
72278;BMP280;61204;49.980;8.358;2022-10-01T10:32:18;99911.06;;;11.99
72278;BMP280;61204;49.980;8.358;2022-10-01T10:34:51;99919.50;;;12.29
72278;BMP280;61204;49.980;8.358;2022-10-01T10:37:28;99918.25;;;12.57
72278;BMP280;61204;49.980;8.358;2022-10-01T10:39:58;99909.63;;;12.91
72278;BMP280;61204;49.980;8.358;2022-10-01T10:42:24;99912.97;;;13.03
72278;BMP280;61204;49.980;8.358;2022-10-01T10:44:54;99913.69;;;13.17
72278;BMP280;61204;49.980;8.358;2022-10-01T10:47:27;99903.56;;;13.35
72278;BMP280;61204;49.980;8.358;2022-10-01T10:49:59;99913.81;;;13.49
72278;BMP280;61204;49.980;8.358;2022-10-01T10:52:35;99907.28;;;13.56
72278;BMP280;61204;49.980;8.358;2022-10-01T10:55:20;99908.63;;;13.55
72278;BMP280;61204;49.980;8.358;2022-10-01T10:58:14;99905.38;;;13.45
72278;BMP280;61204;49.980;8.358;2022-10-01T11:00:46;99911.34;;;13.25
72278;BMP280;61204;49.980;8.358;2022-10-01T11:03:16;99918.34;;;13.28
72278;BMP280;61204;49.980;8.358;2022-10-01T11:05:50;99915.59;;;13.28
72278;BMP280;61204;49.980;8.358;2022-10-01T11:08:24;99920.00;;;13.33
72278;BMP280;61204;49.980;8.358;2022-10-01T11:10:56;99913.09;;;13.62
72278;BMP280;61204;49.980;8.358;2022-10-01T11:29:57;99926.59;;;17.65
72278;BMP280;61204;49.980;8.358;2022-10-01T11:39:57;99918.66;;;17.10
72278;BMP280;61204;49.980;8.358;2022-10-01T11:42:44;99928.03;;;17.44
72278;BMP280;61204;49.980;8.358;2022-10-01T11:45:29;99908.84;;;17.98
72278;BMP280;61204;49.980;8.358;2022-10-01T11:48:26;99905.03;;;18.63
72278;BMP280;61204;49.980;8.358;2022-10-01T11:51:38;99903.31;;;18.24
72278;BMP280;61204;49.980;8.358;2022-10-01T11:54:20;99914.50;;;18.02
72278;BMP280;61204;49.980;8.358;2022-10-01T11:56:56;99909.69;;;17.33
72278;BMP280;61204;49.980;8.358;2022-10-01T12:00:17;99902.03;;;17.32
72278;BMP280;61204;49.980;8.358;2022-10-01T12:03:19;99919.59;;;17.62
